createdAt,value
2022-08-13T00:01:05.000Z,0
2022-08-13T00:02:21.000Z,0
2022-08-13T00:03:37.000Z,0
2022-08-13T00:04:54.000Z,0
2022-08-13T00:06:10.000Z,0
2022-08-13T00:07:26.000Z,0
2022-08-13T00:08:42.000Z,0
2022-08-13T00:09:58.000Z,0
2022-08-13T00:11:14.000Z,0
2022-08-13T00:12:30.000Z,0
2022-08-13T00:13:46.000Z,0
2022-08-13T00:15:02.000Z,0
2022-08-13T00:16:18.000Z,0
2022-08-13T00:17:34.000Z,0
2022-08-13T00:18:51.000Z,0
2022-08-13T00:20:07.000Z,0
2022-08-13T00:21:23.000Z,0
2022-08-13T00:22:39.000Z,0
2022-08-13T00:23:55.000Z,0
2022-08-13T00:25:12.000Z,0
2022-08-13T00:26:28.000Z,0
2022-08-13T00:27:44.000Z,0
2022-08-13T00:28:59.000Z,0
2022-08-13T00:30:15.000Z,0
2022-08-13T00:31:32.000Z,0
2022-08-13T00:32:48.000Z,0
2022-08-13T00:34:04.000Z,0
2022-08-13T00:35:20.000Z,0
2022-08-13T00:36:36.000Z,0
2022-08-13T00:37:52.000Z,0
2022-08-13T00:39:09.000Z,0
2022-08-13T00:40:25.000Z,0
2022-08-13T00:41:41.000Z,0
2022-08-13T00:42:57.000Z,0
2022-08-13T00:44:13.000Z,0
2022-08-13T00:45:29.000Z,0
2022-08-13T00:46:45.000Z,0
2022-08-13T00:48:01.000Z,0
2022-08-13T00:49:17.000Z,0
2022-08-13T00:50:33.000Z,0
2022-08-13T00:51:50.000Z,0
2022-08-13T00:53:06.000Z,0
2022-08-13T00:54:22.000Z,0
2022-08-13T00:55:38.000Z,0
2022-08-13T00:56:54.000Z,0
2022-08-13T00:58:10.000Z,0
2022-08-13T00:59:27.000Z,0
2022-08-13T01:00:43.000Z,0
2022-08-13T01:01:58.000Z,0
2022-08-13T01:03:14.000Z,0
2022-08-13T01:04:30.000Z,0
2022-08-13T01:05:47.000Z,0
2022-08-13T01:07:03.000Z,0
2022-08-13T01:08:19.000Z,0
2022-08-13T01:09:35.000Z,0
2022-08-13T01:10:51.000Z,0
2022-08-13T01:12:08.000Z,0
2022-08-13T01:13:24.000Z,0
2022-08-13T01:14:40.000Z,0
2022-08-13T01:15:56.000Z,0
2022-08-13T01:17:12.000Z,0
2022-08-13T01:18:29.000Z,0
2022-08-13T01:19:44.000Z,0
2022-08-13T01:21:00.000Z,0
2022-08-13T01:22:16.000Z,0
2022-08-13T01:23:32.000Z,0
2022-08-13T01:24:48.000Z,0
2022-08-13T01:26:05.000Z,0
2022-08-13T01:27:21.000Z,0
2022-08-13T01:28:37.000Z,0
2022-08-13T01:29:53.000Z,0
2022-08-13T01:31:09.000Z,0
2022-08-13T01:32:26.000Z,0
2022-08-13T01:33:42.000Z,0
2022-08-13T01:34:58.000Z,0
2022-08-13T01:36:13.000Z,0
2022-08-13T01:37:29.000Z,0
2022-08-13T01:38:46.000Z,0
2022-08-13T01:40:02.000Z,0
2022-08-13T01:41:18.000Z,0
2022-08-13T01:42:34.000Z,0
2022-08-13T01:43:50.000Z,0
2022-08-13T01:45:07.000Z,0
2022-08-13T01:46:23.000Z,0
2022-08-13T01:47:39.000Z,0
2022-08-13T01:48:55.000Z,0
2022-08-13T01:50:11.000Z,0
2022-08-13T01:51:27.000Z,0
2022-08-13T01:52:43.000Z,0
2022-08-13T01:53:59.000Z,0
2022-08-13T01:55:15.000Z,0
2022-08-13T01:56:31.000Z,0
2022-08-13T01:57:47.000Z,0
2022-08-13T01:59:03.000Z,0
2022-08-13T02:00:19.000Z,0
2022-08-13T02:01:35.000Z,0
2022-08-13T02:02:51.000Z,0
2022-08-13T02:04:07.000Z,0
2022-08-13T02:05:24.000Z,0
2022-08-13T02:06:40.000Z,0
2022-08-13T02:07:56.000Z,0
2022-08-13T02:09:12.000Z,0
2022-08-13T02:10:28.000Z,0
2022-08-13T02:11:45.000Z,0
2022-08-13T02:13:01.000Z,0
2022-08-13T02:14:17.000Z,0
2022-08-13T02:15:32.000Z,0
2022-08-13T02:16:48.000Z,0
2022-08-13T02:18:04.000Z,0
2022-08-13T02:19:21.000Z,0
2022-08-13T02:20:37.000Z,0
2022-08-13T02:21:53.000Z,0
2022-08-13T02:23:09.000Z,0
2022-08-13T02:24:25.000Z,0
2022-08-13T02:25:42.000Z,0
2022-08-13T02:26:58.000Z,0
2022-08-13T02:28:14.000Z,0
2022-08-13T02:29:30.000Z,0
2022-08-13T02:30:46.000Z,0
2022-08-13T02:32:02.000Z,0
2022-08-13T02:33:18.000Z,0
2022-08-13T02:34:34.000Z,0
2022-08-13T02:35:50.000Z,0
2022-08-13T02:37:06.000Z,0
2022-08-13T02:38:23.000Z,0
2022-08-13T02:39:39.000Z,0
2022-08-13T02:40:55.000Z,0
2022-08-13T02:42:11.000Z,0
2022-08-13T02:43:27.000Z,0
2022-08-13T02:44:43.000Z,0
2022-08-13T02:46:00.000Z,0
2022-08-13T02:47:16.000Z,0
2022-08-13T02:48:31.000Z,0
2022-08-13T02:49:47.000Z,0
2022-08-13T02:51:03.000Z,0
2022-08-13T02:52:20.000Z,0
2022-08-13T02:53:36.000Z,0
2022-08-13T02:54:52.000Z,0
2022-08-13T02:56:08.000Z,0
2022-08-13T02:57:24.000Z,0
2022-08-13T02:58:41.000Z,0
2022-08-13T02:59:57.000Z,0
2022-08-13T03:01:13.000Z,0
2022-08-13T03:02:29.000Z,0
2022-08-13T03:03:45.000Z,0
2022-08-13T03:05:00.000Z,0
2022-08-13T03:06:17.000Z,0
2022-08-13T03:07:33.000Z,0
2022-08-13T03:08:49.000Z,0
2022-08-13T03:10:05.000Z,0
2022-08-13T03:11:21.000Z,0
2022-08-13T03:12:38.000Z,0
2022-08-13T03:13:54.000Z,0
2022-08-13T03:15:10.000Z,0
2022-08-13T03:16:26.000Z,0
2022-08-13T03:17:42.000Z,0
2022-08-13T03:18:59.000Z,0
2022-08-13T03:20:15.000Z,0
2022-08-13T03:21:30.000Z,0
2022-08-13T03:22:46.000Z,0
2022-08-13T03:24:02.000Z,0
2022-08-13T03:25:19.000Z,0
2022-08-13T03:26:35.000Z,0
2022-08-13T03:27:51.000Z,0
2022-08-13T03:29:07.000Z,0
2022-08-13T03:30:23.000Z,4
2022-08-13T03:31:39.000Z,4
2022-08-13T03:32:56.000Z,0
2022-08-13T03:34:12.000Z,0
2022-08-13T03:35:28.000Z,4
2022-08-13T03:36:44.000Z,4
2022-08-13T03:37:59.000Z,4
2022-08-13T03:39:16.000Z,4
2022-08-13T03:40:32.000Z,8
2022-08-13T03:41:48.000Z,8
2022-08-13T03:43:04.000Z,8
2022-08-13T03:44:20.000Z,12
2022-08-13T03:45:37.000Z,12
2022-08-13T03:46:53.000Z,16
2022-08-13T03:48:09.000Z,16
2022-08-13T03:49:25.000Z,20
2022-08-13T03:50:41.000Z,28
2022-08-13T03:51:58.000Z,28
2022-08-13T03:53:14.000Z,36
2022-08-13T03:54:29.000Z,44
2022-08-13T03:55:45.000Z,48
2022-08-13T03:57:01.000Z,56
2022-08-13T03:58:17.000Z,68
2022-08-13T03:59:34.000Z,80
2022-08-13T04:00:50.000Z,88
2022-08-13T04:02:06.000Z,104
2022-08-13T04:04:38.000Z,136
2022-08-13T04:05:55.000Z,156
2022-08-13T04:07:11.000Z,180
2022-08-13T04:08:27.000Z,204
2022-08-13T04:09:43.000Z,232
2022-08-13T04:10:58.000Z,256
2022-08-13T04:12:15.000Z,284
2022-08-13T04:13:31.000Z,312
2022-08-13T04:14:47.000Z,348
2022-08-13T04:16:03.000Z,380
2022-08-13T04:17:19.000Z,416
2022-08-13T04:18:35.000Z,456
2022-08-13T04:19:52.000Z,496
2022-08-13T04:21:08.000Z,540
2022-08-13T04:22:24.000Z,580
2022-08-13T04:23:40.000Z,624
2022-08-13T04:24:56.000Z,664
2022-08-13T04:26:13.000Z,708
2022-08-13T04:27:28.000Z,752
2022-08-13T04:28:44.000Z,800
2022-08-13T04:30:00.000Z,848
2022-08-13T04:31:16.000Z,896
2022-08-13T04:32:33.000Z,948
2022-08-13T04:33:49.000Z,996
2022-08-13T04:35:05.000Z,1048
2022-08-13T04:36:21.000Z,1096
2022-08-13T04:37:37.000Z,1148
2022-08-13T04:38:54.000Z,1196
2022-08-13T04:40:10.000Z,1252
2022-08-13T04:41:26.000Z,1308
2022-08-13T04:42:42.000Z,1364
2022-08-13T04:43:57.000Z,1424
2022-08-13T04:45:13.000Z,1492
2022-08-13T04:46:30.000Z,2252
2022-08-13T04:47:46.000Z,3184
2022-08-13T04:49:02.000Z,3480
2022-08-13T04:50:18.000Z,3384
2022-08-13T04:51:34.000Z,3288
2022-08-13T04:52:51.000Z,2704
2022-08-13T04:54:07.000Z,2420
2022-08-13T04:55:23.000Z,3104
2022-08-13T04:56:39.000Z,3504
2022-08-13T04:57:55.000Z,3752
2022-08-13T04:59:12.000Z,3988
2022-08-13T05:00:27.000Z,3964
2022-08-13T05:01:43.000Z,4168
2022-08-13T05:02:59.000Z,4316
2022-08-13T05:04:15.000Z,4456
2022-08-13T05:05:32.000Z,4504
2022-08-13T05:06:48.000Z,4404
2022-08-13T05:08:04.000Z,3444
2022-08-13T05:09:20.000Z,2840
2022-08-13T05:10:36.000Z,2804
2022-08-13T05:11:52.000Z,2816
2022-08-13T05:13:09.000Z,3120
2022-08-13T05:14:25.000Z,4448
2022-08-13T05:15:41.000Z,5456
2022-08-13T05:16:56.000Z,5572
2022-08-13T05:18:12.000Z,5924
2022-08-13T05:19:29.000Z,6096
2022-08-13T05:20:45.000Z,6332
2022-08-13T05:22:01.000Z,6372
2022-08-13T05:23:17.000Z,6564
2022-08-13T05:24:33.000Z,6832
2022-08-13T05:25:50.000Z,6776
2022-08-13T05:27:06.000Z,5896
2022-08-13T05:28:22.000Z,4692
2022-08-13T05:29:38.000Z,3804
2022-08-13T05:30:54.000Z,3776
2022-08-13T05:32:10.000Z,5200
2022-08-13T05:33:26.000Z,6872
2022-08-13T05:34:42.000Z,7324
2022-08-13T05:35:58.000Z,7664
2022-08-13T05:37:14.000Z,7852
2022-08-13T05:38:30.000Z,8520
2022-08-13T05:39:47.000Z,9032
2022-08-13T05:41:03.000Z,8920
2022-08-13T05:42:19.000Z,9304
2022-08-13T05:43:35.000Z,9000
2022-08-13T05:44:51.000Z,5204
2022-08-13T05:46:08.000Z,3872
2022-08-13T05:47:24.000Z,3752
2022-08-13T05:48:40.000Z,3760
2022-08-13T05:49:55.000Z,3832
2022-08-13T05:51:11.000Z,4280
2022-08-13T05:52:28.000Z,4552
2022-08-13T05:53:44.000Z,4072
2022-08-13T05:55:00.000Z,5904
2022-08-13T05:56:16.000Z,7820
2022-08-13T05:57:32.000Z,8748
2022-08-13T05:58:48.000Z,10484
2022-08-13T06:00:05.000Z,10832
2022-08-13T06:01:21.000Z,10488
2022-08-13T06:02:37.000Z,10744
2022-08-13T06:03:53.000Z,10924
2022-08-13T06:05:09.000Z,10864
2022-08-13T06:06:25.000Z,10028
2022-08-13T06:07:41.000Z,6656
2022-08-13T06:08:57.000Z,4652
2022-08-13T06:10:13.000Z,6704
2022-08-13T06:11:29.000Z,9952
2022-08-13T06:12:46.000Z,10424
2022-08-13T06:14:01.000Z,11160
2022-08-13T06:15:17.000Z,10584
2022-08-13T06:16:33.000Z,11088
2022-08-13T06:17:49.000Z,11936
2022-08-13T06:19:06.000Z,10836
2022-08-13T06:20:22.000Z,7664
2022-08-13T06:21:38.000Z,4904
2022-08-13T06:22:54.000Z,4528
2022-08-13T06:24:10.000Z,4476
2022-08-13T06:25:26.000Z,4468
2022-08-13T06:26:43.000Z,4504
2022-08-13T06:27:59.000Z,4816
2022-08-13T06:29:15.000Z,9784
2022-08-13T06:30:30.000Z,15392
2022-08-13T06:31:46.000Z,16640
2022-08-13T06:33:03.000Z,16672
2022-08-13T06:34:19.000Z,16800
2022-08-13T06:35:35.000Z,18528
2022-08-13T06:36:51.000Z,19680
2022-08-13T06:38:07.000Z,20384
2022-08-13T06:39:24.000Z,21472
2022-08-13T06:40:40.501Z,20800
2022-08-13T06:41:56.000Z,20992
2022-08-13T06:43:12.000Z,16384
2022-08-13T06:44:28.000Z,7280
2022-08-13T06:45:45.000Z,5128
2022-08-13T06:47:00.000Z,11428
2022-08-13T06:48:16.000Z,21632
2022-08-13T06:49:32.000Z,23200
2022-08-13T06:50:48.000Z,23168
2022-08-13T06:52:04.000Z,24416
2022-08-13T06:53:21.000Z,24672
2022-08-13T06:54:37.000Z,19936
2022-08-13T06:55:53.000Z,8132
2022-08-13T06:57:09.000Z,4772
2022-08-13T06:58:25.000Z,4600
2022-08-13T06:59:42.000Z,4516
2022-08-13T07:00:58.000Z,4436
2022-08-13T07:02:14.000Z,4388
2022-08-13T07:03:29.000Z,4380
2022-08-13T07:04:45.000Z,4380
2022-08-13T07:06:02.000Z,4384
2022-08-13T07:07:18.000Z,4428
2022-08-13T07:08:34.000Z,4500
2022-08-13T07:09:50.000Z,4564
2022-08-13T07:11:06.000Z,4632
2022-08-13T07:12:23.000Z,4660
2022-08-13T07:13:39.000Z,4668
2022-08-13T07:14:55.000Z,4656
2022-08-13T07:16:11.000Z,4640
2022-08-13T07:17:27.000Z,4632
2022-08-13T07:18:43.000Z,4620
2022-08-13T07:19:59.000Z,4600
2022-08-13T07:21:15.000Z,4572
2022-08-13T07:22:31.000Z,4536
2022-08-13T07:23:47.000Z,4520
2022-08-13T07:25:03.000Z,4536
2022-08-13T07:26:20.000Z,4556
2022-08-13T07:27:36.000Z,4584
2022-08-13T07:28:52.000Z,4588
2022-08-13T07:30:08.000Z,4584
2022-08-13T07:31:24.000Z,4568
2022-08-13T07:32:41.000Z,4556
2022-08-13T07:33:57.000Z,4544
2022-08-13T07:35:13.000Z,4536
2022-08-13T07:36:28.000Z,4532
2022-08-13T07:37:44.000Z,4536
2022-08-13T07:39:01.000Z,4552
2022-08-13T07:40:17.000Z,4584
2022-08-13T07:41:33.000Z,4604
2022-08-13T07:42:49.000Z,4608
2022-08-13T07:44:05.000Z,4620
2022-08-13T07:45:21.000Z,4624
2022-08-13T07:46:38.000Z,4624
2022-08-13T07:47:54.000Z,4628
2022-08-13T07:49:10.000Z,4632
2022-08-13T07:50:26.000Z,4644
2022-08-13T07:51:42.000Z,4648
2022-08-13T07:52:58.000Z,4644
2022-08-13T07:54:14.000Z,4644
2022-08-13T07:55:30.000Z,4656
2022-08-13T07:56:46.000Z,4688
2022-08-13T07:58:02.000Z,4716
2022-08-13T07:59:19.000Z,4760
2022-08-13T08:00:35.000Z,4824
2022-08-13T08:01:51.000Z,4760
2022-08-13T08:03:07.000Z,4764
2022-08-13T08:04:23.000Z,4756
2022-08-13T08:05:39.000Z,4756
2022-08-13T08:06:56.000Z,4760
2022-08-13T08:08:12.000Z,4776
2022-08-13T08:09:27.000Z,4796
2022-08-13T08:10:43.000Z,4820
2022-08-13T08:11:59.000Z,4844
2022-08-13T08:13:16.000Z,4860
2022-08-13T08:14:32.000Z,4864
2022-08-13T08:15:48.000Z,4872
2022-08-13T08:17:04.000Z,4884
2022-08-13T08:18:20.000Z,4896
2022-08-13T08:19:37.000Z,4908
2022-08-13T08:20:53.000Z,4916
2022-08-13T08:22:09.000Z,4924
2022-08-13T08:23:25.000Z,4932
2022-08-13T08:24:41.000Z,4940
2022-08-13T08:25:57.000Z,4940
2022-08-13T08:27:13.000Z,4936
2022-08-13T08:28:29.000Z,4936
2022-08-13T08:29:45.000Z,4944
2022-08-13T08:31:01.000Z,4956
2022-08-13T08:32:17.000Z,4964
2022-08-13T08:33:34.000Z,4952
2022-08-13T08:34:50.000Z,4952
2022-08-13T08:36:06.000Z,4960
2022-08-13T08:37:22.000Z,4968
2022-08-13T08:38:38.000Z,4996
2022-08-13T08:39:55.000Z,5004
2022-08-13T08:41:11.000Z,5016
2022-08-13T08:42:26.000Z,5036
2022-08-13T08:43:42.000Z,5048
2022-08-13T08:44:58.000Z,5052
2022-08-13T08:46:15.000Z,5056
2022-08-13T08:47:31.000Z,5052
2022-08-13T08:48:47.000Z,5044
2022-08-13T08:50:03.000Z,5028
2022-08-13T08:51:19.000Z,5024
2022-08-13T08:52:36.000Z,5040
2022-08-13T08:53:52.000Z,5064
2022-08-13T08:55:08.000Z,5084
2022-08-13T08:56:24.000Z,5108
2022-08-13T08:57:40.000Z,5128
2022-08-13T08:58:55.000Z,5136
2022-08-13T09:00:12.000Z,5128
2022-08-13T09:01:28.000Z,5128
2022-08-13T09:02:44.000Z,5140
2022-08-13T09:04:00.000Z,5164
2022-08-13T09:05:16.000Z,5200
2022-08-13T09:06:33.000Z,5220
2022-08-13T09:07:49.000Z,5244
2022-08-13T09:09:05.000Z,5264
2022-08-13T09:10:21.000Z,5276
2022-08-13T09:11:37.000Z,5288
2022-08-13T09:12:54.000Z,5296
2022-08-13T09:14:10.000Z,5304
2022-08-13T09:15:25.000Z,5312
2022-08-13T09:16:41.000Z,5324
2022-08-13T09:17:57.000Z,5328
2022-08-13T09:19:13.000Z,5380
2022-08-13T09:20:30.000Z,5516
2022-08-13T09:21:46.000Z,5708
2022-08-13T09:23:02.000Z,6072
2022-08-13T09:24:18.000Z,21152
2022-08-13T09:25:34.000Z,57536
2022-08-13T09:26:51.000Z,50464
2022-08-13T09:28:07.000Z,22944
2022-08-13T09:29:23.000Z,7184
2022-08-13T09:30:39.000Z,8180
2022-08-13T09:31:54.000Z,9720
2022-08-13T09:33:11.000Z,10376
2022-08-13T09:34:27.000Z,6276
2022-08-13T09:35:43.000Z,5780
2022-08-13T09:36:59.000Z,5692
2022-08-13T09:38:15.000Z,5628
2022-08-13T09:39:32.000Z,5568
2022-08-13T09:40:48.000Z,5528
2022-08-13T09:42:04.000Z,5500
2022-08-13T09:43:20.000Z,5508
2022-08-13T09:44:36.000Z,5528
2022-08-13T09:45:52.000Z,5592
2022-08-13T09:47:09.000Z,5676
2022-08-13T09:48:24.000Z,5768
2022-08-13T09:49:40.000Z,5844
2022-08-13T09:50:56.000Z,5912
2022-08-13T09:52:12.000Z,5956
2022-08-13T09:53:29.000Z,6008
2022-08-13T09:54:45.000Z,6016
2022-08-13T09:56:01.000Z,5996
2022-08-13T09:57:17.000Z,6000
2022-08-13T09:58:33.000Z,6036
2022-08-13T09:59:50.000Z,6080
2022-08-13T10:01:06.000Z,6080
2022-08-13T10:02:22.000Z,6052
2022-08-13T10:03:38.000Z,6012
2022-08-13T10:04:53.000Z,5960
2022-08-13T10:06:09.000Z,5952
2022-08-13T10:07:26.000Z,5968
2022-08-13T10:08:42.000Z,5988
2022-08-13T10:09:58.000Z,6020
2022-08-13T10:11:14.000Z,6044
2022-08-13T10:12:30.000Z,6080
2022-08-13T10:13:47.000Z,6136
2022-08-13T10:15:03.000Z,6216
2022-08-13T10:16:19.000Z,6312
2022-08-13T10:17:35.000Z,6416
2022-08-13T10:18:51.000Z,6548
2022-08-13T10:20:08.000Z,6712
2022-08-13T10:21:23.000Z,6928
2022-08-13T10:22:39.000Z,7328
2022-08-13T10:23:55.000Z,17092
2022-08-13T10:25:11.000Z,70784
2022-08-13T10:26:27.000Z,67520
2022-08-13T10:27:44.000Z,47008
2022-08-13T10:28:59.000Z,31552
2022-08-13T10:30:15.000Z,15296
2022-08-13T10:31:31.000Z,26624
2022-08-13T10:32:47.000Z,29568
2022-08-13T10:34:04.000Z,20448
2022-08-13T10:35:20.000Z,17184
2022-08-13T10:36:36.000Z,20736
2022-08-13T10:37:52.000Z,35840
2022-08-13T10:39:08.000Z,36832
2022-08-13T10:40:25.000Z,21312
2022-08-13T10:41:41.000Z,26272
2022-08-13T10:42:57.000Z,34528
2022-08-13T10:44:13.000Z,31904
2022-08-13T10:45:28.000Z,25600
2022-08-13T10:46:45.000Z,60480
2022-08-13T10:48:01.000Z,31840
2022-08-13T10:49:17.000Z,24736
2022-08-13T10:50:33.000Z,34272
2022-08-13T10:51:49.000Z,35104
2022-08-13T10:53:05.000Z,58048
2022-08-13T10:54:22.000Z,41344
2022-08-13T10:55:38.000Z,22144
2022-08-13T10:56:54.000Z,41600
2022-08-13T10:58:10.000Z,9020
2022-08-13T10:59:26.000Z,7916
2022-08-13T11:00:43.000Z,39072
2022-08-13T11:01:58.000Z,22080
2022-08-13T11:03:14.000Z,14652
2022-08-13T11:04:30.000Z,43648
2022-08-13T11:05:46.000Z,25952
2022-08-13T11:07:03.000Z,77088
2022-08-13T11:08:19.000Z,49920
2022-08-13T11:09:35.000Z,29664
2022-08-13T11:10:51.000Z,35936
2022-08-13T11:12:07.000Z,36736
2022-08-13T11:13:24.000Z,64384
2022-08-13T11:14:40.000Z,67040
2022-08-13T11:15:56.000Z,37696
2022-08-13T11:17:12.000Z,63520
2022-08-13T11:18:27.000Z,60000
2022-08-13T11:19:43.000Z,37824
2022-08-13T11:21:00.000Z,33472
2022-08-13T11:22:16.000Z,58080
2022-08-13T11:23:32.000Z,48640
2022-08-13T11:24:48.000Z,37824
2022-08-13T11:26:04.000Z,69632
2022-08-13T11:27:21.000Z,57440
2022-08-13T11:28:37.000Z,18752
2022-08-13T11:29:53.000Z,16672
2022-08-13T11:31:09.000Z,16408
2022-08-13T11:32:25.000Z,17664
2022-08-13T11:33:42.000Z,14064
2022-08-13T11:34:57.000Z,14472
2022-08-13T11:36:13.000Z,14456
2022-08-13T11:37:29.000Z,14576
2022-08-13T11:38:45.000Z,13372
2022-08-13T11:40:02.258Z,11888
2022-08-13T11:41:18.000Z,10912
2022-08-13T11:42:34.000Z,10468
2022-08-13T11:43:50.000Z,11360
2022-08-13T11:45:06.000Z,12112
2022-08-13T11:46:22.000Z,12328
2022-08-13T11:47:39.000Z,12120
2022-08-13T11:48:55.000Z,14308
2022-08-13T11:50:11.000Z,13088
2022-08-13T11:51:26.000Z,12860
2022-08-13T11:52:42.000Z,12656
2022-08-13T11:53:59.000Z,12476
2022-08-13T11:55:15.000Z,12368
2022-08-13T11:56:31.000Z,12888
2022-08-13T11:57:47.000Z,14500
2022-08-13T11:59:03.000Z,14168
2022-08-13T12:00:20.000Z,14964
2022-08-13T12:01:36.000Z,51712
2022-08-13T12:02:52.000Z,20448
2022-08-13T12:04:08.000Z,55936
2022-08-13T12:05:24.000Z,33632
2022-08-13T12:06:41.000Z,47872
2022-08-13T12:07:56.000Z,57888
2022-08-13T12:09:12.000Z,64160
2022-08-13T12:10:28.000Z,38336
2022-08-13T12:11:44.000Z,62336
2022-08-13T12:13:00.000Z,78688
2022-08-13T12:14:17.000Z,79296
2022-08-13T12:15:33.000Z,82784
2022-08-13T12:16:49.000Z,78240
2022-08-13T12:18:05.000Z,43616
2022-08-13T12:19:21.000Z,63840
2022-08-13T12:20:38.000Z,79136
2022-08-13T12:21:54.000Z,75072
2022-08-13T12:23:10.000Z,61600
2022-08-13T12:24:25.000Z,32096
2022-08-13T12:25:41.000Z,24064
2022-08-13T12:26:58.000Z,46976
2022-08-13T12:28:14.000Z,72768
2022-08-13T12:29:30.000Z,76896
2022-08-13T12:30:46.000Z,80416
2022-08-13T12:32:02.000Z,75552
2022-08-13T12:33:19.000Z,39648
2022-08-13T12:34:35.000Z,55904
2022-08-13T12:35:51.000Z,79904
2022-08-13T12:37:07.000Z,77248
2022-08-13T12:38:23.000Z,81344
2022-08-13T12:39:39.000Z,80352
2022-08-13T12:40:55.000Z,77344
2022-08-13T12:42:11.000Z,68672
2022-08-13T12:43:27.000Z,37024
2022-08-13T12:44:43.000Z,61152
2022-08-13T12:45:59.000Z,75104
2022-08-13T12:47:16.000Z,69120
2022-08-13T12:48:32.000Z,61696
2022-08-13T12:49:48.000Z,53632
2022-08-13T12:51:04.000Z,15888
2022-08-13T12:52:20.000Z,33824
2022-08-13T12:53:37.000Z,24672
2022-08-13T12:54:53.000Z,61632
2022-08-13T12:56:09.000Z,67200
2022-08-13T12:57:24.000Z,70464
2022-08-13T12:58:40.000Z,72704
2022-08-13T12:59:57.000Z,73632
2022-08-13T13:01:13.000Z,74304
2022-08-13T13:02:29.000Z,60320
2022-08-13T13:03:45.000Z,32928
2022-08-13T13:05:01.000Z,58720
2022-08-13T13:06:18.000Z,70048
2022-08-13T13:07:34.000Z,66208
2022-08-13T13:08:50.627Z,63200
2022-08-13T13:10:06.000Z,64992
2022-08-13T13:11:22.000Z,69216
2022-08-13T13:12:38.000Z,71552
2022-08-13T13:13:55.000Z,30144
2022-08-13T13:15:10.000Z,22336
2022-08-13T13:16:26.000Z,25760
2022-08-13T13:17:42.000Z,14760
2022-08-13T13:18:58.000Z,16748
2022-08-13T13:20:15.000Z,61216
2022-08-13T13:21:31.000Z,48544
2022-08-13T13:22:47.000Z,47264
2022-08-13T13:24:03.000Z,11328
2022-08-13T13:25:19.000Z,11352
2022-08-13T13:26:36.000Z,30112
2022-08-13T13:27:52.000Z,22592
2022-08-13T13:29:08.000Z,13272
2022-08-13T13:30:24.000Z,16224
2022-08-13T13:31:39.000Z,27232
2022-08-13T13:32:56.000Z,15832
2022-08-13T13:34:12.000Z,67008
2022-08-13T13:35:28.000Z,65248
2022-08-13T13:36:44.000Z,67232
2022-08-13T13:38:00.000Z,67936
2022-08-13T13:39:16.000Z,66784
2022-08-13T13:40:33.000Z,65952
2022-08-13T13:41:49.000Z,61760
2022-08-13T13:43:05.000Z,33600
2022-08-13T13:44:21.000Z,44800
2022-08-13T13:45:37.000Z,68992
2022-08-13T13:46:54.000Z,67936
2022-08-13T13:48:10.000Z,53984
2022-08-13T13:49:25.000Z,13180
2022-08-13T13:50:41.000Z,40832
2022-08-13T13:51:57.000Z,27200
2022-08-13T13:53:14.000Z,70208
2022-08-13T13:54:30.000Z,70400
2022-08-13T13:55:46.000Z,67456
2022-08-13T13:57:02.000Z,65248
2022-08-13T13:58:18.000Z,38080
2022-08-13T13:59:35.000Z,21888
2022-08-13T14:00:51.000Z,35104
2022-08-13T14:02:07.000Z,55456
2022-08-13T14:03:23.000Z,57600
2022-08-13T14:04:39.000Z,58656
2022-08-13T14:05:55.000Z,59840
2022-08-13T14:07:11.000Z,60032
2022-08-13T14:08:27.000Z,59840
2022-08-13T14:09:43.000Z,60544
2022-08-13T14:10:59.000Z,58752
2022-08-13T14:12:15.000Z,57760
2022-08-13T14:13:32.000Z,54976
2022-08-13T14:14:48.000Z,43424
2022-08-13T14:16:04.000Z,26656
2022-08-13T14:17:20.000Z,19136
2022-08-13T14:18:36.000Z,25696
2022-08-13T14:19:53.000Z,39584
2022-08-13T14:21:09.000Z,17792
2022-08-13T14:22:24.000Z,48736
2022-08-13T14:23:40.000Z,50432
2022-08-13T14:24:56.000Z,49280
2022-08-13T14:26:13.000Z,49088
2022-08-13T14:27:29.000Z,49504
2022-08-13T14:28:45.000Z,50048
2022-08-13T14:30:01.000Z,49664
2022-08-13T14:31:17.000Z,48288
2022-08-13T14:32:34.000Z,47552
2022-08-13T14:33:50.000Z,38048
2022-08-13T14:35:06.000Z,23552
2022-08-13T14:36:22.000Z,36960
2022-08-13T14:37:38.000Z,45632
2022-08-13T14:38:53.000Z,43808
2022-08-13T14:40:10.000Z,44448
2022-08-13T14:41:26.000Z,42720
2022-08-13T14:42:42.000Z,39552
2022-08-13T14:43:57.000Z,38944
2022-08-13T14:45:13.000Z,38816
2022-08-13T14:46:30.000Z,41184
2022-08-13T14:47:46.000Z,40960
2022-08-13T14:49:02.000Z,41920
2022-08-13T14:50:18.000Z,42432
2022-08-13T14:51:34.000Z,42528
2022-08-13T14:52:51.000Z,42496
2022-08-13T14:54:07.000Z,35584
2022-08-13T14:55:23.000Z,19456
2022-08-13T14:56:39.000Z,28672
2022-08-13T14:57:55.000Z,41568
2022-08-13T14:59:12.000Z,41504
2022-08-13T15:00:27.000Z,40832
2022-08-13T15:01:43.000Z,41408
2022-08-13T15:02:59.000Z,42048
2022-08-13T15:04:15.000Z,40448
2022-08-13T15:05:32.000Z,40416
2022-08-13T15:06:48.000Z,42176
2022-08-13T15:08:04.000Z,40832
2022-08-13T15:09:20.000Z,34144
2022-08-13T15:10:36.000Z,18976
2022-08-13T15:11:52.000Z,33088
2022-08-13T15:13:09.000Z,41728
2022-08-13T15:14:25.000Z,40256
2022-08-13T15:15:41.000Z,28224
2022-08-13T15:16:56.000Z,15308
2022-08-13T15:18:12.000Z,29888
2022-08-13T15:19:29.000Z,43872
2022-08-13T15:20:45.000Z,44320
2022-08-13T15:22:01.000Z,43392
2022-08-13T15:23:17.000Z,40096
2022-08-13T15:24:33.000Z,40192
2022-08-13T15:25:50.000Z,41408
2022-08-13T15:27:06.000Z,39488
2022-08-13T15:28:22.000Z,37312
2022-08-13T15:29:38.000Z,38624
2022-08-13T15:30:54.000Z,40800
2022-08-13T15:32:11.000Z,40608
2022-08-13T15:33:26.000Z,40992
2022-08-13T15:34:42.000Z,39040
2022-08-13T15:35:58.000Z,38944
2022-08-13T15:37:14.000Z,27552
2022-08-13T15:38:30.000Z,13100
2022-08-13T15:39:47.000Z,17472
2022-08-13T15:41:03.000Z,27296
2022-08-13T15:42:19.000Z,34624
2022-08-13T15:43:35.000Z,33952
2022-08-13T15:44:51.000Z,31680
2022-08-13T15:46:08.000Z,31424
2022-08-13T15:47:24.000Z,30848
2022-08-13T15:48:40.000Z,29024
2022-08-13T15:49:55.000Z,29440
2022-08-13T15:51:11.000Z,29056
2022-08-13T15:52:28.000Z,29248
2022-08-13T15:53:44.000Z,27392
2022-08-13T15:55:00.000Z,25664
2022-08-13T15:56:16.000Z,23136
2022-08-13T15:57:32.000Z,20832
2022-08-13T15:58:49.000Z,15200
2022-08-13T16:00:05.000Z,11228
2022-08-13T16:01:21.000Z,12568
2022-08-13T16:02:37.000Z,16960
2022-08-13T16:03:53.000Z,19712
2022-08-13T16:05:09.000Z,20352
2022-08-13T16:06:25.000Z,20256
2022-08-13T16:07:41.000Z,20800
2022-08-13T16:08:57.000Z,21248
2022-08-13T16:10:13.000Z,20832
2022-08-13T16:11:29.000Z,19840
2022-08-13T16:12:46.000Z,18784
2022-08-13T16:14:02.000Z,8860
2022-08-13T16:15:18.000Z,16192
2022-08-13T16:16:34.000Z,10200
2022-08-13T16:17:50.000Z,8016
2022-08-13T16:19:07.000Z,7592
2022-08-13T16:20:23.000Z,7336
2022-08-13T16:21:39.000Z,7180
2022-08-13T16:22:54.000Z,7044
2022-08-13T16:24:10.000Z,6876
2022-08-13T16:25:27.000Z,6716
2022-08-13T16:26:43.000Z,6584
2022-08-13T16:27:59.000Z,6480
2022-08-13T16:29:15.000Z,6360
2022-08-13T16:30:31.000Z,6244
2022-08-13T16:31:47.000Z,6200
2022-08-13T16:33:04.000Z,6188
2022-08-13T16:34:20.000Z,6156
2022-08-13T16:35:36.000Z,6100
2022-08-13T16:36:52.000Z,6032
2022-08-13T16:38:08.000Z,5916
2022-08-13T16:39:24.000Z,5720
2022-08-13T16:40:40.000Z,5656
2022-08-13T16:41:56.752Z,5492
2022-08-13T16:43:12.000Z,5228
2022-08-13T16:44:28.000Z,5180
2022-08-13T16:45:45.000Z,5288
2022-08-13T16:47:01.000Z,4368
2022-08-13T16:48:17.000Z,5352
2022-08-13T16:49:33.000Z,5304
2022-08-13T16:50:49.000Z,5132
2022-08-13T16:52:06.000Z,5236
2022-08-13T16:53:22.000Z,5192
2022-08-13T16:54:38.000Z,5128
2022-08-13T16:55:53.000Z,5064
2022-08-13T16:57:09.000Z,4960
2022-08-13T16:58:26.000Z,4816
2022-08-13T16:59:42.000Z,4972
2022-08-13T17:00:58.000Z,4916
2022-08-13T17:02:14.000Z,4880
2022-08-13T17:03:30.000Z,4840
2022-08-13T17:04:46.000Z,4788
2022-08-13T17:06:03.000Z,4728